createdAt,value
2023-03-18T00:01:38.472Z,87.52
2023-03-18T00:04:07.664Z,87.75
2023-03-18T00:06:39.281Z,87.93
2023-03-18T00:09:08.472Z,88.18
2023-03-18T00:11:37.293Z,87.97
2023-03-18T00:14:06.872Z,87.81
2023-03-18T00:16:36.462Z,87.92
2023-03-18T00:19:05.861Z,87.31
2023-03-18T00:21:35.209Z,89.55
2023-03-18T00:24:04.534Z,90.25
2023-03-18T00:26:33.254Z,89.46
2023-03-18T00:29:02.954Z,89.36
2023-03-18T00:31:32.368Z,88.86
2023-03-18T00:34:01.852Z,88.54
2023-03-18T00:36:31.453Z,88.67
2023-03-18T00:39:04.238Z,88.26
2023-03-18T00:41:35.383Z,88.05
2023-03-18T00:44:04.872Z,88.54
2023-03-18T00:46:36.564Z,88.29
2023-03-18T00:49:09.162Z,88.21
2023-03-18T00:51:38.854Z,88.16
2023-03-18T00:54:09.534Z,88.48
2023-03-18T00:56:39.614Z,88.62
2023-03-18T00:59:09.747Z,88.10
2023-03-18T01:01:42.062Z,88.72
2023-03-18T01:04:17.304Z,88.94
2023-03-18T01:06:51.290Z,88.85
2023-03-18T01:09:24.219Z,88.54
2023-03-18T01:11:55.276Z,89.01
2023-03-18T01:14:26.000Z,88.88
2023-03-18T01:16:56.160Z,89.28
2023-03-18T01:19:27.874Z,90.40
2023-03-18T01:21:57.832Z,90.23
2023-03-18T01:24:28.509Z,89.45
2023-03-18T01:26:58.388Z,89.54
2023-03-18T01:29:29.105Z,89.62
2023-03-18T01:31:59.183Z,90.23
2023-03-18T01:34:28.929Z,90.27
2023-03-18T01:36:59.045Z,90.00
2023-03-18T01:39:32.121Z,89.56
2023-03-18T01:42:02.820Z,90.18
2023-03-18T01:44:35.043Z,90.54
2023-03-18T01:47:05.765Z,89.86
2023-03-18T01:49:57.330Z,89.61
2023-03-18T01:52:33.328Z,89.71
2023-03-18T01:55:08.433Z,90.03
2023-03-18T01:57:38.501Z,89.23
2023-03-18T02:00:09.073Z,90.20
2023-03-18T02:02:50.299Z,89.54
2023-03-18T02:07:54.342Z,88.90
2023-03-18T02:10:30.879Z,88.23
2023-03-18T02:13:06.708Z,89.32
2023-03-18T02:15:47.907Z,88.70
2023-03-18T02:18:26.583Z,88.79
2023-03-18T02:21:11.717Z,88.40
2023-03-18T02:24:07.526Z,88.40
2023-03-18T02:27:15.497Z,88.31
2023-03-18T02:29:47.367Z,88.02
2023-03-18T02:32:22.959Z,87.09
2023-03-18T02:34:52.913Z,87.38
2023-03-18T02:37:22.825Z,87.56
2023-03-18T02:39:53.422Z,88.76
2023-03-18T02:42:33.531Z,87.73
2023-03-18T02:45:04.590Z,86.25
2023-03-18T02:47:46.623Z,85.59
2023-03-18T02:50:17.118Z,84.20
2023-03-18T02:52:47.758Z,84.05
2023-03-18T02:55:18.202Z,84.52
2023-03-18T02:57:48.762Z,85.00
2023-03-18T03:00:19.371Z,84.59
2023-03-18T03:02:49.915Z,84.17
2023-03-18T03:05:19.877Z,83.95
2023-03-18T03:07:49.740Z,82.26
2023-03-18T03:10:19.650Z,82.10
2023-03-18T03:12:50.253Z,81.40
2023-03-18T03:15:20.776Z,81.55
2023-03-18T03:17:56.993Z,80.96
2023-03-18T03:20:27.055Z,81.02
2023-03-18T03:22:57.356Z,80.26
2023-03-18T03:25:28.604Z,80.61
2023-03-18T03:27:59.045Z,80.49
2023-03-18T03:30:29.072Z,80.25
2023-03-18T03:32:59.680Z,80.32
2023-03-18T03:35:29.642Z,79.66
2023-03-18T03:38:00.903Z,78.85
2023-03-18T03:40:31.161Z,79.35
2023-03-18T03:43:01.408Z,79.62
2023-03-18T03:45:31.434Z,79.79
2023-03-18T03:48:02.035Z,79.84
2023-03-18T03:50:32.791Z,79.65
2023-03-18T03:53:03.720Z,78.58
2023-03-18T03:55:34.947Z,78.74
2023-03-18T03:58:05.589Z,78.67
2023-03-18T04:00:36.824Z,78.24
2023-03-18T04:03:06.857Z,78.45
2023-03-18T04:05:36.569Z,77.98
2023-03-18T04:08:07.817Z,77.14
2023-03-18T04:10:40.263Z,76.94
2023-03-18T04:13:12.754Z,77.05
2023-03-18T04:15:43.347Z,77.10
2023-03-18T04:18:18.124Z,77.01
2023-03-18T04:20:48.889Z,76.25
2023-03-18T04:23:34.379Z,76.03
2023-03-18T04:26:04.268Z,75.94
2023-03-18T04:28:35.571Z,74.79
2023-03-18T04:31:07.305Z,74.42
2023-03-18T04:33:37.213Z,74.62
2023-03-18T04:36:07.613Z,73.93
2023-03-18T04:38:38.295Z,73.35
2023-03-18T04:41:08.826Z,73.45
2023-03-18T04:43:38.756Z,73.66
2023-03-18T04:46:09.847Z,72.09
2023-03-18T04:48:41.000Z,72.09
2023-03-18T04:51:11.573Z,72.90
2023-03-18T04:53:41.554Z,71.66
2023-03-18T04:56:12.637Z,71.40
2023-03-18T04:58:50.847Z,71.67
2023-03-18T05:01:25.498Z,71.29
2023-03-18T05:03:56.275Z,72.43
2023-03-18T05:06:34.678Z,71.53
2023-03-18T05:09:14.138Z,70.69
2023-03-18T05:11:45.889Z,70.29
2023-03-18T05:14:30.391Z,70.68
2023-03-18T05:17:01.547Z,69.50
2023-03-18T05:19:32.899Z,68.53
2023-03-18T05:22:12.876Z,68.25
2023-03-18T05:24:44.721Z,66.22
2023-03-18T05:27:20.501Z,65.45
2023-03-18T05:29:59.475Z,67.37
2023-03-18T05:32:45.772Z,65.89
2023-03-18T05:35:16.297Z,65.95
2023-03-18T05:37:51.730Z,66.76
2023-03-18T05:40:23.398Z,66.35
2023-03-18T05:43:06.621Z,66.48
2023-03-18T05:45:43.646Z,65.98
2023-03-18T05:48:16.834Z,63.83
2023-03-18T05:50:53.760Z,65.03
2023-03-18T05:53:28.069Z,63.63
2023-03-18T05:56:08.068Z,64.37
2023-03-18T05:58:37.972Z,65.15
2023-03-18T06:01:26.923Z,64.72
2023-03-18T06:03:58.114Z,65.09
2023-03-18T06:06:28.520Z,64.59
2023-03-18T06:08:59.769Z,65.91
2023-03-18T06:11:30.774Z,65.70
2023-03-18T06:14:00.896Z,65.34
2023-03-18T06:16:31.256Z,64.66
2023-03-18T06:19:01.774Z,63.41
2023-03-18T06:21:35.484Z,63.21
2023-03-18T06:24:09.231Z,64.55
2023-03-18T06:26:41.037Z,63.90
2023-03-18T06:29:12.177Z,63.08
2023-03-18T06:31:42.173Z,63.10
2023-03-18T06:34:15.216Z,63.82
2023-03-18T06:36:46.324Z,62.73
2023-03-18T06:39:20.837Z,62.85
2023-03-18T06:41:51.146Z,62.92
2023-03-18T06:44:34.375Z,62.79
2023-03-18T06:47:15.829Z,62.53
2023-03-18T06:49:53.727Z,62.40
2023-03-18T06:52:30.680Z,62.50
2023-03-18T06:55:08.118Z,63.16
2023-03-18T06:57:41.865Z,63.05
2023-03-18T07:00:13.040Z,62.51
2023-03-18T07:02:42.966Z,61.46
2023-03-18T07:05:14.636Z,61.70
2023-03-18T07:07:45.312Z,60.77
2023-03-18T07:10:21.839Z,60.89
2023-03-18T07:12:53.271Z,60.03
2023-03-18T07:15:24.298Z,61.63
2023-03-18T07:17:57.017Z,60.69
2023-03-18T07:20:25.905Z,58.44
2023-03-18T07:23:07.901Z,60.10
2023-03-18T07:25:42.977Z,60.28
2023-03-18T07:28:12.522Z,57.88
2023-03-18T07:30:41.346Z,58.68
2023-03-18T07:33:10.603Z,59.47
2023-03-18T07:35:42.084Z,58.39
2023-03-18T07:38:12.106Z,58.26
2023-03-18T07:40:41.205Z,57.90
2023-03-18T07:43:10.334Z,59.73
2023-03-18T07:45:39.594Z,60.69
2023-03-18T07:48:08.591Z,60.98
2023-03-18T07:50:37.630Z,60.26
2023-03-18T07:53:06.539Z,60.76
2023-03-18T07:55:35.538Z,60.74
2023-03-18T07:58:05.785Z,60.85
2023-03-18T08:00:34.681Z,60.71
2023-03-18T08:03:04.955Z,60.70
2023-03-18T08:05:34.835Z,59.43
2023-03-18T08:08:05.348Z,59.29
2023-03-18T08:10:35.163Z,60.05
2023-03-18T08:13:04.950Z,60.37
2023-03-18T08:15:34.321Z,60.51
2023-03-18T08:18:03.694Z,61.14
2023-03-18T08:20:32.628Z,60.81
2023-03-18T08:23:01.728Z,60.35
2023-03-18T08:25:31.183Z,60.19
2023-03-18T08:28:00.566Z,61.42
2023-03-18T08:30:29.776Z,60.65
2023-03-18T08:32:59.011Z,60.51
2023-03-18T08:35:27.856Z,60.27
2023-03-18T08:37:56.811Z,61.08
2023-03-18T08:40:27.074Z,61.24
2023-03-18T08:42:56.848Z,61.23
2023-03-18T08:45:28.299Z,61.74
2023-03-18T08:47:57.495Z,61.16
2023-03-18T08:50:29.604Z,61.75
2023-03-18T08:53:00.681Z,61.40
2023-03-18T08:55:35.880Z,62.95
2023-03-18T08:58:06.734Z,61.84
2023-03-18T09:00:38.745Z,61.97
2023-03-18T09:03:08.606Z,62.52
2023-03-18T09:05:38.647Z,62.50
2023-03-18T09:08:09.443Z,62.62
2023-03-18T09:10:38.465Z,61.22
2023-03-18T09:13:07.189Z,60.95
2023-03-18T09:15:36.156Z,60.55
2023-03-18T09:18:11.669Z,60.05
2023-03-18T09:20:42.693Z,60.86
2023-03-18T09:23:13.498Z,60.81
2023-03-18T09:25:45.810Z,60.27
2023-03-18T09:28:15.469Z,59.85
2023-03-18T09:30:44.501Z,59.92
2023-03-18T09:33:14.616Z,59.61
2023-03-18T09:35:43.910Z,58.78
2023-03-18T09:38:21.124Z,59.63
2023-03-18T09:41:02.953Z,59.35
2023-03-18T09:43:45.542Z,60.17
2023-03-18T09:46:28.225Z,60.13
2023-03-18T09:49:18.882Z,60.56
2023-03-18T09:52:09.114Z,60.77
2023-03-18T09:55:03.561Z,61.80
2023-03-18T09:57:39.861Z,61.73
2023-03-18T10:00:30.889Z,61.83
2023-03-18T10:03:11.944Z,62.54
2023-03-18T10:05:54.942Z,62.88
2023-03-18T10:08:36.444Z,63.05
2023-03-18T10:11:14.358Z,63.11
2023-03-18T10:13:53.881Z,62.75
2023-03-18T10:16:28.420Z,63.42
2023-03-18T10:18:58.237Z,64.05
2023-03-18T10:21:52.706Z,63.54
2023-03-18T10:24:43.838Z,64.76
2023-03-18T10:27:39.184Z,64.86
2023-03-18T10:30:21.231Z,65.45
2023-03-18T10:33:15.360Z,65.34
2023-03-18T10:35:53.847Z,64.74
2023-03-18T10:38:42.822Z,64.63
2023-03-18T10:41:34.387Z,64.77
2023-03-18T10:44:26.015Z,64.84
2023-03-18T10:47:09.503Z,64.00
2023-03-18T10:49:56.827Z,63.50
2023-03-18T10:52:41.228Z,64.01
2023-03-18T10:55:19.490Z,64.04
2023-03-18T10:57:48.699Z,63.99
2023-03-18T11:00:38.372Z,63.89
2023-03-18T11:03:08.420Z,64.39
2023-03-18T11:05:39.689Z,63.88
2023-03-18T11:08:29.865Z,64.26
2023-03-18T11:10:59.377Z,64.33
2023-03-18T11:13:28.053Z,64.35
2023-03-18T11:15:58.359Z,63.74
2023-03-18T11:18:28.817Z,64.86
2023-03-18T11:21:05.672Z,65.19
2023-03-18T11:23:56.971Z,65.51
2023-03-18T11:26:30.914Z,65.96
2023-03-18T11:29:12.312Z,65.51
2023-03-18T11:31:59.013Z,65.04
2023-03-18T11:34:30.382Z,65.48
2023-03-18T11:37:09.204Z,65.61
2023-03-18T11:39:42.439Z,64.34
2023-03-18T11:42:24.138Z,64.16
2023-03-18T11:44:57.994Z,64.13
2023-03-18T11:47:31.969Z,64.83
2023-03-18T11:50:03.855Z,64.75
2023-03-18T11:53:23.559Z,65.31
2023-03-18T11:56:19.952Z,65.43
2023-03-18T11:58:58.016Z,64.86
2023-03-18T12:01:55.052Z,65.06
2023-03-18T12:04:24.383Z,64.76
2023-03-18T12:07:40.314Z,64.02
2023-03-18T12:10:31.543Z,64.25
2023-03-18T12:13:37.871Z,63.91
2023-03-18T12:16:15.869Z,64.10
2023-03-18T12:18:57.605Z,64.72
2023-03-18T12:22:07.450Z,65.31
2023-03-18T12:24:57.871Z,65.24
2023-03-18T12:27:40.109Z,65.58
2023-03-18T12:30:30.535Z,65.66
2023-03-18T12:33:11.615Z,65.80
2023-03-18T12:36:04.874Z,66.81
2023-03-18T12:39:06.824Z,67.97
2023-03-18T12:41:47.858Z,67.51
2023-03-18T12:44:37.703Z,67.94
2023-03-18T12:47:09.476Z,68.24
2023-03-18T12:49:49.514Z,69.02
2023-03-18T12:52:40.593Z,69.63
2023-03-18T12:55:26.329Z,70.15
2023-03-18T12:58:02.452Z,70.42
2023-03-18T13:00:59.607Z,70.85
2023-03-18T13:03:41.087Z,71.04
2023-03-18T13:06:19.741Z,71.36
2023-03-18T13:09:25.501Z,71.23
2023-03-18T13:12:09.081Z,71.48
2023-03-18T13:14:50.009Z,71.87
2023-03-18T13:17:33.915Z,70.88
2023-03-18T13:20:05.743Z,71.36
2023-03-18T13:22:43.347Z,71.48
2023-03-18T13:25:45.723Z,71.23
2023-03-18T13:28:49.524Z,71.54
2023-03-18T13:31:26.071Z,71.90
2023-03-18T13:34:00.774Z,71.58
2023-03-18T13:36:50.790Z,71.48
2023-03-18T13:40:15.004Z,71.03
2023-03-18T13:42:45.428Z,70.94
2023-03-18T13:45:39.994Z,71.02
2023-03-18T13:48:17.403Z,71.55
2023-03-18T13:50:49.604Z,71.78
2023-03-18T13:53:40.120Z,71.55
2023-03-18T13:56:45.071Z,71.39
2023-03-18T13:59:35.689Z,72.03
2023-03-18T14:02:23.183Z,72.35
2023-03-18T14:04:54.102Z,72.25
2023-03-18T14:07:24.545Z,72.82
2023-03-18T14:10:21.836Z,72.08
2023-03-18T14:12:51.274Z,72.39
2023-03-18T14:15:40.333Z,72.48
2023-03-18T14:18:28.872Z,72.60
2023-03-18T14:21:03.418Z,72.72
2023-03-18T14:23:41.302Z,73.37
2023-03-18T14:26:22.766Z,73.35
2023-03-18T14:29:32.470Z,73.48
2023-03-18T14:32:06.196Z,73.40
2023-03-18T14:34:54.616Z,73.03
2023-03-18T14:37:33.587Z,72.99
2023-03-18T14:40:23.295Z,73.32
2023-03-18T14:43:04.525Z,73.39
2023-03-18T14:45:37.017Z,74.48
2023-03-18T14:48:31.482Z,74.94
2023-03-18T14:51:09.150Z,75.03
2023-03-18T14:54:21.777Z,74.88
2023-03-18T14:56:56.487Z,75.14
2023-03-18T14:59:26.527Z,75.14
2023-03-18T15:01:56.434Z,75.25
2023-03-18T15:04:29.003Z,74.99
2023-03-18T15:07:04.790Z,75.02
2023-03-18T15:09:37.061Z,75.21
2023-03-18T15:12:21.128Z,75.79
2023-03-18T15:14:52.227Z,75.90
2023-03-18T15:17:21.565Z,76.25
2023-03-18T15:19:50.367Z,76.38
2023-03-18T15:22:27.299Z,76.51
2023-03-18T15:25:02.247Z,76.66
2023-03-18T15:27:36.634Z,77.03
2023-03-18T15:30:08.514Z,77.05
2023-03-18T15:32:52.654Z,77.10
2023-03-18T15:35:25.769Z,77.85
2023-03-18T15:38:20.678Z,78.33
2023-03-18T15:40:53.481Z,78.56
2023-03-18T15:43:45.989Z,78.47
2023-03-18T15:46:31.868Z,78.44
2023-03-18T15:49:06.455Z,79.08
2023-03-18T15:51:46.104Z,79.61
2023-03-18T15:54:25.817Z,79.05
2023-03-18T15:56:58.122Z,79.78
2023-03-18T15:59:30.476Z,80.00
2023-03-18T16:02:01.327Z,79.84
2023-03-18T16:04:35.116Z,79.54
2023-03-18T16:07:05.345Z,79.95
2023-03-18T16:09:35.773Z,80.26
2023-03-18T16:12:20.100Z,80.19
2023-03-18T16:14:51.927Z,80.63
2023-03-18T16:17:22.821Z,80.90
2023-03-18T16:19:56.104Z,80.87
2023-03-18T16:22:25.247Z,80.78
2023-03-18T16:24:54.172Z,81.65
2023-03-18T16:27:34.748Z,81.85
2023-03-18T16:30:03.748Z,81.68
2023-03-18T16:32:32.642Z,82.29
2023-03-18T16:35:01.707Z,81.70
2023-03-18T16:37:30.788Z,82.56
2023-03-18T16:39:59.872Z,82.36
2023-03-18T16:42:28.755Z,82.58
2023-03-18T16:44:57.748Z,82.45
2023-03-18T16:47:28.727Z,82.68
2023-03-18T16:49:58.828Z,82.93
2023-03-18T16:52:27.669Z,82.90
2023-03-18T16:54:56.593Z,82.81
2023-03-18T16:57:25.874Z,83.36
2023-03-18T16:59:57.681Z,83.49
2023-03-18T17:02:36.644Z,83.74
2023-03-18T17:05:06.538Z,84.05
2023-03-18T17:07:37.949Z,84.10
2023-03-18T17:10:09.867Z,84.40
2023-03-18T17:12:40.262Z,83.98
2023-03-18T17:15:13.077Z,84.08
2023-03-18T17:17:42.061Z,83.87
2023-03-18T17:20:22.399Z,84.40
2023-03-18T17:22:51.289Z,84.00
2023-03-18T17:25:20.080Z,84.33
2023-03-18T17:27:56.278Z,84.41
2023-03-18T17:30:35.228Z,84.45
2023-03-18T17:33:06.278Z,84.38
2023-03-18T17:35:35.703Z,84.04
2023-03-18T17:38:04.765Z,84.36
2023-03-18T17:40:33.882Z,84.26
2023-03-18T17:43:02.789Z,84.37
2023-03-18T17:45:34.958Z,84.35
2023-03-18T17:48:27.689Z,84.76
2023-03-18T17:51:18.536Z,85.06
2023-03-18T17:53:54.821Z,84.79
2023-03-18T17:56:24.160Z,85.30
2023-03-18T17:58:53.356Z,85.09
2023-03-18T18:01:28.238Z,84.97
2023-03-18T18:04:01.269Z,85.05
2023-03-18T18:06:31.146Z,85.19
2023-03-18T18:09:01.791Z,85.13
2023-03-18T18:11:40.069Z,85.68
2023-03-18T18:14:25.793Z,85.76
2023-03-18T18:16:57.035Z,85.62
2023-03-18T18:19:26.393Z,85.60
2023-03-18T18:21:55.821Z,85.63
2023-03-18T18:24:30.261Z,85.83
2023-03-18T18:26:59.219Z,85.99
2023-03-18T18:29:30.605Z,86.33
2023-03-18T18:31:59.849Z,86.01
2023-03-18T18:34:28.541Z,86.36
2023-03-18T18:36:58.533Z,86.66
2023-03-18T18:39:27.183Z,86.55
2023-03-18T18:41:56.106Z,86.33
2023-03-18T18:44:24.967Z,86.02
2023-03-18T18:46:54.754Z,86.20
2023-03-18T18:49:25.520Z,85.83
2023-03-18T18:51:56.470Z,85.58
2023-03-18T18:54:26.571Z,85.41
2023-03-18T18:56:55.740Z,84.66
2023-03-18T18:59:30.059Z,84.51
2023-03-18T19:01:59.423Z,84.30
2023-03-18T19:04:28.385Z,84.45
2023-03-18T19:06:57.710Z,84.39
2023-03-18T19:09:28.200Z,84.45
2023-03-18T19:11:59.948Z,84.34
2023-03-18T19:14:30.476Z,84.53
2023-03-18T19:17:00.892Z,84.75
2023-03-18T19:19:33.877Z,84.44
2023-03-18T19:22:03.959Z,84.49
2023-03-18T19:24:36.953Z,84.70
2023-03-18T19:27:13.792Z,84.45
2023-03-18T19:29:43.268Z,84.86
2023-03-18T19:32:19.060Z,85.82
2023-03-18T19:34:49.365Z,85.23
2023-03-18T19:37:30.394Z,85.34
2023-03-18T19:40:01.596Z,85.79
2023-03-18T19:42:30.695Z,86.32
2023-03-18T19:44:59.417Z,86.19
2023-03-18T19:47:32.126Z,86.65
2023-03-18T19:50:02.219Z,87.08
2023-03-18T19:52:31.575Z,87.06
2023-03-18T19:55:00.632Z,87.28
2023-03-18T19:57:32.727Z,87.30
2023-03-18T20:00:06.735Z,87.22
2023-03-18T20:02:36.200Z,87.67
2023-03-18T20:05:17.758Z,87.28
2023-03-18T20:07:47.399Z,87.25
2023-03-18T20:10:16.349Z,87.38
2023-03-18T20:12:48.521Z,87.51
2023-03-18T20:15:23.614Z,87.58
2023-03-18T20:17:54.072Z,87.46
2023-03-18T20:20:31.600Z,88.85
2023-03-18T20:23:13.188Z,88.12
2023-03-18T20:25:45.660Z,87.79
2023-03-18T20:28:20.765Z,87.75
2023-03-18T20:30:53.056Z,87.74
2023-03-18T20:33:23.550Z,86.78
2023-03-18T20:35:54.775Z,87.48
2023-03-18T20:38:33.855Z,87.43
2023-03-18T20:41:03.683Z,87.60
2023-03-18T20:43:32.528Z,87.24
2023-03-18T20:46:03.008Z,87.84
2023-03-18T20:48:32.128Z,87.21
2023-03-18T20:51:00.862Z,87.35
2023-03-18T20:53:30.305Z,87.85
2023-03-18T20:55:59.470Z,87.65
2023-03-18T20:58:29.336Z,87.76
2023-03-18T21:00:58.494Z,88.21
2023-03-18T21:03:30.366Z,87.61
2023-03-18T21:06:02.470Z,87.40
2023-03-18T21:08:32.970Z,87.31
2023-03-18T21:11:03.005Z,87.77
2023-03-18T21:13:42.648Z,87.81
2023-03-18T21:16:15.916Z,87.81
2023-03-18T21:18:46.937Z,87.64
2023-03-18T21:21:26.997Z,87.79
2023-03-18T21:23:56.265Z,87.72
2023-03-18T21:26:25.560Z,87.37
2023-03-18T21:28:54.535Z,87.76
2023-03-18T21:31:34.644Z,87.28
2023-03-18T21:34:04.928Z,87.70
2023-03-18T21:36:34.776Z,87.17
2023-03-18T21:39:03.612Z,87.36
2023-03-18T21:41:34.529Z,87.32
2023-03-18T21:44:03.922Z,87.76
2023-03-18T21:46:32.985Z,88.49
2023-03-18T21:49:02.200Z,88.18
2023-03-18T21:51:39.861Z,87.83
2023-03-18T21:54:20.075Z,88.63
2023-03-18T21:56:49.122Z,89.08
2023-03-18T21:59:17.796Z,88.86
2023-03-18T22:01:47.032Z,89.57
2023-03-18T22:04:15.926Z,88.70
2023-03-18T22:06:44.985Z,88.31
2023-03-18T22:09:13.648Z,88.87
2023-03-18T22:11:42.824Z,88.75
2023-03-18T22:14:15.377Z,88.94
2023-03-18T22:16:44.590Z,89.84
2023-03-18T22:19:13.327Z,88.71
2023-03-18T22:21:42.541Z,89.06
2023-03-18T22:24:15.865Z,89.86
2023-03-18T22:26:44.942Z,89.88
2023-03-18T22:29:13.636Z,89.74
2023-03-18T22:31:43.635Z,90.32
2023-03-18T22:34:25.613Z,89.76
2023-03-18T22:36:54.756Z,89.51
2023-03-18T22:39:23.460Z,89.40
2023-03-18T22:41:52.511Z,89.51
2023-03-18T22:44:24.533Z,88.74
2023-03-18T22:46:53.610Z,88.03
2023-03-18T22:49:22.296Z,87.95
2023-03-18T22:51:52.257Z,87.51
2023-03-18T22:54:21.494Z,88.12
2023-03-18T22:56:50.219Z,88.28
2023-03-18T22:59:19.313Z,88.07
2023-03-18T23:01:48.343Z,87.00
2023-03-18T23:04:19.659Z,87.34
2023-03-18T23:06:48.965Z,86.68
2023-03-18T23:09:17.784Z,86.72
2023-03-18T23:11:47.185Z,86.86
2023-03-18T23:14:15.908Z,86.24
2023-03-18T23:16:44.834Z,86.02
2023-03-18T23:19:13.577Z,86.42
2023-03-18T23:21:42.742Z,86.08
2023-03-18T23:24:12.138Z,85.65
2023-03-18T23:26:42.628Z,85.51
2023-03-18T23:29:11.321Z,85.27
2023-03-18T23:31:40.378Z,84.33
2023-03-18T23:34:09.438Z,84.13
2023-03-18T23:36:38.758Z,84.60
2023-03-18T23:39:07.889Z,84.24
2023-03-18T23:41:37.086Z,84.20
2023-03-18T23:44:05.910Z,83.19
2023-03-18T23:46:35.018Z,83.13
2023-03-18T23:49:03.860Z,82.34
2023-03-18T23:51:33.173Z,82.78
2023-03-18T23:54:01.919Z,82.52
2023-03-18T23:56:30.948Z,82.21
2023-03-18T23:58:59.798Z,81.56
